Aktualne dane pomiarowe

Uwaga, wersja testowa! Automatyczne pobieranie danych za pomocą narzędzi lub skryptów to umożliwiających jest zabronione.

Dane meteo z obszaru Polski uzyskane na podstawie depesz SYNOP pobieranych co godzinę z NWS. Najedź myszką na symbol przedstawiony w tabeli, aby uzyskać informacje co do jego znaczenia. Prosimy pamiętać, że to testowa wersja strony, która jeszcze nie jest ukończona. Stworzono również jest krótki FAQ dotyczący korzystania z tej podstrony Anomalie temperatury w chwili obecnej odniesione są do okresu referencyjnego 1951-2016. Okres ten będzie później zmieniony na 1981-2010. Kliknij ikonę aby pobrać plik CSV. Kliknij ikonę aby wygenerować mapę synoptyczną dla danego terminu.

Wybierz Datę:    

        

Kielce-Suków (12570)

Dane terminowe dla wybranej stacji. Kliknij datę, aby otrzymać dane z tego terminu dla wszystkich stacji.

TemperaturaZachmurzenieWiatrCiśnienieOpadyPogoda
 Data t td wb tx tn tg rh  Nt Nl Cl Cm Ch ws wd g1 g2 wx mslp ppp ch 24h 12h t ww ww w1 w2  
2019-08-22 23:00:00 14.1 13.0 13.3--- 9320.0wxwxwx1wx--11028.4 997.0 -0.2----22----
2019-08-22 22:00:00 14.7 12.6 13.2--- 8725.0wxwxwxwxwx0---01028.3 996.9 -0.2----22----
2019-08-22 21:00:00 15.6 13.4 14.1--- 8730.0wxwxwx1wx--11028.2 996.9 0.2---------
2019-08-22 20:00:00 16.7 14.3 15.0--- 8626.0wxwxwx1wx--11028.3 997.2 0.5---------
2019-08-22 19:00:00 16.5 13.4 14.4--- 8240.0wxwxwx2wx---1028.3 997.1 0.5---------
2019-08-22 18:00:00 17.9 13.2 14.8 21.3 14.3- 7445.0wxwxwxwx2wx--21027.7 996.7 -0.2- 0.012------
2019-08-22 17:00:00 19.6 12.6 15.2--- 6445.0wxwxwxwxwx2wx--21027.5 996.7 -0.6---------
2019-08-22 16:00:00 20.3 12.0 15.1--- 5940.0wxwxwxwxwx3wx--31027.3 996.6 -0.9---------
2019-08-22 15:00:00 20.7 12.7 15.7--- 6045.0wxwxwxwxwx3wx--31027.6 996.9 -0.8---------
2019-08-22 14:00:00 20.5 12.7 15.6--- 6140.0wxwxwxwxwx3wx--31028.0 997.3 -0.8---------
2019-08-22 13:00:00 20.8 12.2 15.5--- 5840.0wxwxwxwxwx3wx--31028.2 997.5 -1.0---------
2019-08-22 12:00:00 20.5 12.2 15.3--- 5930.0wxwxwxwxwx4wx--41028.5 997.7 -1.2- 0.06------
2019-08-22 11:00:00 20.6 12.8 15.7--- 6135.0wxwxwxwxwx4wx--41028.9 998.1 -0.7---------
2019-08-22 10:00:00 20.1 12.3 15.2--- 6126.0wxwxwxwxwx4wx--41029.3 998.5 -0.3---------
2019-08-22 09:00:00 19.9 13.4 15.7--- 6626.0wxwxwxwx3wx---1029.8 998.9 -0.1---------
2019-08-22 08:00:00 18.6 13.0 15.0--- 7035.0wxwxwxwx3wx--31029.8 998.8 0.1---------
2019-08-22 07:00:00 17.3 14.6 15.4--- 8423.0wxwxwxwxwx2wx--21029.9 998.8 0.1---------
2019-08-22 06:00:00 14.3 14.1 14.1 16.2 10.0 10 999.0wx-wxwx1wx--11030.5 999.0 0.9 0.1 0.112wx-w1- 0.1
2019-08-22 05:00:00 11.3 11.1 11.1--- 992.5wx-wxwx1wx---1030.5 998.7 0.6---wx---
2019-08-22 04:00:00 10.1 10.1 10.0--- 1000.5wx-wxwx0---01030.6 998.7 0.6---wx-w1w2--
2019-08-22 03:00:00 10.2 10.2 10.1--- 1000.1wx-1wx--11030.0 998.1 0.0---wx-w1w2--
2019-08-22 02:00:00 10.4 10.4 10.3--- 1000.3wx-0---01030.0 998.1 -0.1---wx-w1w2--
2019-08-22 01:00:00 10.7 10.7 10.6--- 1000.1wx-1wx--11029.9 998.1 -0.1---wx-w1w2--
2019-08-22 00:00:00 11.4 11.4 11.3--- 1000.1wx-1wx--11029.9 998.1 0.2- 0.06wx---
2019-08-21 23:00:00 12.0 12.0 12.0--- 1000.4wx-1wx--11029.9 998.2 0.5---wx---
2019-08-21 22:00:00 12.6 12.4 12.4--- 992.5wxwxwxwxwx1wx--11029.8 998.2 0.7---wx22--
2019-08-21 21:00:00 13.3 13.1 13.1--- 992.0wx-wx1wx--11029.4 997.9 0.9---wx22--
2019-08-21 20:00:00 14.4 13.9 14.0--- 9710.0wx-wx1wx--11029.1 997.7 1.2----22----
2019-08-21 19:00:00 15.3 14.5 14.7--- 9520.0wxwxwxwx1wx--11028.8 997.5 1.1----22----
2019-08-21 18:00:00 16.2 14.2 14.8 19.5 15.4- 8830.0wxwxwxwx1wx---1028.2 997.0 0.8---wx-w1--
2019-08-21 17:00:00 17.0 14.3 15.1--- 8427.0wx-wx1wx--11027.6 996.5 0.9---------
2019-08-21 16:00:00 17.2 14.5 15.3--- 8440.0wxwxwxwxwx1wx--11027.5 996.4 0.9---------
2019-08-21 15:00:00 17.8 13.9 15.2--- 7845.0wxwxwx3wx--31027.2 996.2 1.0---wx-w1--
2019-08-21 14:00:00 17.2 14.1 15.1--- 8245.0wxwxwx2wx--21026.6 995.6 0.8---wx---
2019-08-21 13:00:00 16.5 13.8 14.6--- 8425.0wxwxwx2wx---1026.6 995.5 1.3---wx-w1--
2019-08-21 12:00:00 16.2 14.0 14.7--- 8720.0wxwxwx3wx-931026.3 995.2 1.8--6wx-w1w2--
2019-08-21 11:00:00 15.9 14.1 14.6--- 8919.0wxwxwx3wx--31026.0 994.8 2.5---wx---
2019-08-21 10:00:00 15.4 14.1 14.5--- 9211.0wxwxwx4wx--41025.4 994.2 3.4---wx---
2019-08-21 09:00:00 15.6 14.3 14.7--- 9210.0wxwxwx4wx-941024.6 993.4 3.8---wx-w1--
2019-08-21 08:00:00 15.9 15.1 15.3--- 9510.0wxwxwx4wx-941023.4 992.3 3.6---wx---
2019-08-21 07:00:00 18.0 16.8 17.1--- 9310.0wxwxwx4wx9941021.6 990.8 1.8---wx---
2019-08-21 06:00:00 19.5 18.8 19.0 20.9 18.7 18 965.0wxwxwxwx3wx--31020.2 989.6 1.4 16.0 16.012wx-w1w2- 3.5
2019-08-21 05:00:00 19.3 19.1 19.2--- 993.0wxwxwxwx2wx--21019.3 988.7 1.5---wx-w1--
2019-08-21 04:00:00 18.8 18.6 18.7--- 992.5wxwxwx2wx---1019.7 989.0 1.7---wx---
2019-08-21 03:00:00 19.1 18.8 18.9--- 9810.0wxwxwx2wx--21018.8 988.2 1.0---wx-w1--
2019-08-21 02:00:00 19.2 18.5 18.7--- 9614.0wxwxwxwx1wx--11017.8 987.2 -0.5---wx---
2019-08-21 01:00:00 19.5 18.5 18.8--- 9430.0wxwxwx1wx--11017.8 987.3 -1.1---------
2019-08-21 00:00:00 19.5 18.7 18.9--- 9530.0wxwxwxwx2wx--21017.7 987.2 -1.9- 13.06wx-w1w2--
1.2 ms

 

Print Friendly, PDF & Email